Time;durP1;ratioP1;P1;durP2;ratioP2;P2;SDS_P1;SDS_P2;PMS_P1;PMS_P2;Temp;Humidity;BMP_temperature;BMP_pressure;BME280_temperature;BME280_humidity;BME280_pressure;Samples;Min_cycle;Max_cycle;Signal;HPM_P1;HPM_P2
2020/12/13 00:01:43;;;;;;;83.70;30.70;;;1.80;93.40;;;;;;5039025;28;20067;-68
2020/12/13 00:04:08;;;;;;;118.10;37.65;;;1.80;93.40;;;;;;5037717;28;20072;-68
2020/12/13 00:06:34;;;;;;;140.00;44.40;;;1.80;93.40;;;;;;5039227;28;20463;-68
2020/12/13 00:09:01;;;;;;;140.85;45.08;;;1.80;93.40;;;;;;5036529;28;20109;-68
2020/12/13 00:11:27;;;;;;;99.82;35.35;;;1.80;93.40;;;;;;5035684;28;20096;-67
2020/12/13 00:13:52;;;;;;;86.95;31.85;;;1.80;93.40;;;;;;5035955;28;20132;-68
2020/12/13 00:16:18;;;;;;;100.95;33.85;;;1.80;93.40;;;;;;5035691;28;20025;-68
2020/12/13 00:18:44;;;;;;;88.07;31.98;;;1.80;93.40;;;;;;5034163;28;20099;-68
2020/12/13 00:21:14;;;;;;;81.68;29.70;;;1.80;93.40;;;;;;5035745;28;20079;-68
2020/12/13 00:23:40;;;;;;;91.32;31.05;;;1.80;93.50;;;;;;5035674;28;20120;-68
2020/12/13 00:26:10;;;;;;;85.20;31.83;;;1.80;93.50;;;;;;5035927;28;20029;-68
2020/12/13 00:28:37;;;;;;;93.07;35.33;;;1.80;93.70;;;;;;5035522;28;20032;-68
2020/12/13 00:31:04;;;;;;;102.57;37.70;;;1.80;93.60;;;;;;5035328;28;20053;-70
2020/12/13 00:33:29;;;;;;;107.57;35.95;;;1.80;93.60;;;;;;5035506;28;20033;-68
2020/12/13 00:35:55;;;;;;;122.55;44.05;;;1.80;93.60;;;;;;5035697;28;20345;-68
2020/12/13 00:38:21;;;;;;;99.20;37.53;;;1.80;93.60;;;;;;5035469;28;20379;-68
2020/12/13 00:40:51;;;;;;;101.05;36.70;;;1.80;93.90;;;;;;5035149;28;20025;-67
2020/12/13 00:43:18;;;;;;;85.63;32.45;;;1.80;93.60;;;;;;5033940;28;20025;-68
2020/12/13 00:45:44;;;;;;;91.65;34.72;;;1.90;93.70;;;;;;5033917;28;20113;-68
2020/12/13 00:48:10;;;;;;;86.65;33.63;;;1.90;93.70;;;;;;5033913;28;20515;-68
2020/12/13 00:50:42;;;;;;;119.28;42.85;;;1.90;93.60;;;;;;5035010;28;20034;-69
2020/12/13 00:53:07;;;;;;;126.35;41.58;;;1.90;93.70;;;;;;5035260;28;20091;-68
2020/12/13 00:55:34;;;;;;;127.70;38.97;;;1.90;93.70;;;;;;5035117;28;20026;-68
2020/12/13 00:58:00;;;;;;;113.45;39.67;;;1.90;93.70;;;;;;5035159;28;20030;-68
2020/12/13 01:00:26;;;;;;;97.45;35.88;;;1.90;93.70;;;;;;5033544;28;20483;-68
2020/12/13 01:03:00;;;;;;;73.18;30.02;;;1.90;93.80;;;;;;5034534;28;20480;-68
2020/12/13 01:05:26;;;;;;;73.13;29.45;;;1.90;93.70;;;;;;5034695;28;20487;-68
2020/12/13 01:07:52;;;;;;;75.70;30.40;;;1.90;93.80;;;;;;5035003;28;20422;-68
2020/12/13 01:10:19;;;;;;;79.60;28.80;;;1.90;94.10;;;;;;5035798;28;20105;-67
2020/12/13 01:12:45;;;;;;;70.60;28.77;;;1.90;93.80;;;;;;5036792;28;20103;-68
2020/12/13 01:15:11;;;;;;;70.38;28.58;;;2.00;93.80;;;;;;5035108;28;20069;-68
2020/12/13 01:17:36;;;;;;;70.95;28.58;;;2.00;93.80;;;;;;5034705;28;20025;-68
2020/12/13 01:20:04;;;;;;;104.63;38.72;;;2.00;93.80;;;;;;5034411;28;20024;-68
2020/12/13 01:22:34;;;;;;;75.22;29.75;;;2.00;93.80;;;;;;5034972;28;20499;-68
2020/12/13 01:25:00;;;;;;;74.40;27.33;;;2.00;93.70;;;;;;5033513;28;20025;-67
2020/12/13 01:27:26;;;;;;;89.15;34.38;;;1.90;93.60;;;;;;5034420;28;20087;-68
2020/12/13 01:29:52;;;;;;;85.60;33.15;;;2.00;93.70;;;;;;5034460;28;20491;-68
2020/12/13 01:32:17;;;;;;;74.93;26.88;;;2.00;93.70;;;;;;5034568;28;20017;-68
2020/12/13 01:34:43;;;;;;;84.00;30.38;;;2.00;93.70;;;;;;5034175;28;20034;-68
2020/12/13 01:37:09;;;;;;;78.55;29.13;;;2.00;93.70;;;;;;5034362;28;20021;-68
2020/12/13 01:39:34;;;;;;;79.93;30.77;;;2.00;93.70;;;;;;5034385;28;20503;-68
2020/12/13 01:42:00;;;;;;;83.25;30.65;;;2.00;93.80;;;;;;5034216;28;20044;-68
2020/12/13 01:44:31;;;;;;;93.50;33.97;;;1.90;93.80;;;;;;5033070;28;20030;-68
2020/12/13 01:46:59;;;;;;;103.70;38.40;;;2.00;93.80;;;;;;5033727;28;20168;-69
2020/12/13 01:49:29;;;;;;;94.25;35.08;;;2.00;93.80;;;;;;5034138;28;20112;-67
2020/12/13 01:54:26;;;;;;;94.18;32.55;;;2.00;93.90;;;;;;5033835;28;20048;-67
2020/12/13 01:56:57;;;;;;;84.57;31.42;;;2.00;93.80;;;;;;5033783;28;20029;-67
2020/12/13 01:59:25;;;;;;;108.00;37.20;;;2.00;93.90;;;;;;5034050;28;20096;-67
2020/12/13 02:01:57;;;;;;;100.45;34.63;;;2.00;93.90;;;;;;5032578;28;20044;-67
2020/12/13 02:04:23;;;;;;;88.40;32.75;;;2.00;93.80;;;;;;5034215;28;20128;-67
2020/12/13 02:06:52;;;;;;;105.50;35.05;;;2.00;93.80;;;;;;5033626;28;20055;-66
2020/12/13 02:09:21;;;;;;;98.40;34.40;;;2.00;93.80;;;;;;5033841;28;20022;-67
2020/12/13 02:11:48;;;;;;;96.90;34.58;;;2.00;93.80;;;;;;5032792;28;20029;-68
2020/12/13 02:14:14;;;;;;;103.43;36.08;;;1.90;93.80;;;;;;5032391;28;20088;-68
2020/12/13 02:16:45;;;;;;;102.88;34.33;;;2.00;93.80;;;;;;5032242;28;20057;-68
2020/12/13 02:19:12;;;;;;;99.13;33.47;;;1.90;93.90;;;;;;5032334;28;20073;-68
2020/12/13 02:21:45;;;;;;;93.85;32.67;;;2.00;93.90;;;;;;5033471;28;20490;-67
2020/12/13 02:24:12;;;;;;;101.30;34.90;;;1.90;94.00;;;;;;5046329;28;20025;-67
2020/12/13 02:26:42;;;;;;;97.43;36.03;;;2.00;94.00;;;;;;5033324;28;20029;-67
2020/12/13 02:29:08;;;;;;;102.88;35.25;;;2.00;94.00;;;;;;5033496;28;20025;-67
2020/12/13 02:31:34;;;;;;;98.82;33.70;;;2.00;94.10;;;;;;5032236;28;20036;-68
2020/12/13 02:34:02;;;;;;;121.47;42.35;;;2.00;94.10;;;;;;5041618;28;20044;-68
2020/12/13 02:36:31;;;;;;;101.05;34.28;;;2.00;94.00;;;;;;5046356;28;20025;-68
2020/12/13 02:38:58;;;;;;;90.57;31.13;;;2.00;94.10;;;;;;5051549;28;20487;-68
2020/12/13 02:41:24;;;;;;;87.45;31.05;;;2.00;94.00;;;;;;5053112;28;20057;-68
2020/12/13 02:43:50;;;;;;;82.78;27.45;;;2.00;94.00;;;;;;5053250;28;20028;-67
2020/12/13 02:46:16;;;;;;;86.05;29.23;;;2.00;94.00;;;;;;5053134;28;20032;-68
2020/12/13 02:48:42;;;;;;;79.20;28.73;;;2.00;94.00;;;;;;5052835;28;20067;-68
2020/12/13 02:51:07;;;;;;;73.10;26.52;;;2.10;94.10;;;;;;5051981;28;20099;-67
2020/12/13 02:53:33;;;;;;;67.18;25.23;;;2.10;94.10;;;;;;5052912;28;20033;-67
2020/12/13 02:55:59;;;;;;;69.05;27.45;;;2.10;94.10;;;;;;5053266;28;20375;-67
2020/12/13 02:58:25;;;;;;;73.88;26.70;;;2.10;94.00;;;;;;5053000;28;20075;-67
2020/12/13 03:00:50;;;;;;;68.38;26.42;;;2.10;94.10;;;;;;5052927;28;20433;-67
2020/12/13 03:03:16;;;;;;;64.28;25.00;;;2.10;94.10;;;;;;5052940;28;20057;-68
2020/12/13 03:05:42;;;;;;;62.67;22.67;;;2.10;94.10;;;;;;5053022;28;20021;-67
2020/12/13 03:08:08;;;;;;;72.47;26.40;;;2.10;94.10;;;;;;5053030;28;20025;-68
2020/12/13 03:10:34;;;;;;;72.03;25.88;;;2.10;94.10;;;;;;5052824;28;20190;-67
2020/12/13 03:13:00;;;;;;;70.70;27.02;;;2.10;94.10;;;;;;5052628;28;20023;-67
2020/12/13 03:15:25;;;;;;;70.18;26.52;;;2.10;94.10;;;;;;5052593;28;20029;-68
2020/12/13 03:17:51;;;;;;;72.72;26.20;;;2.10;94.00;;;;;;5052864;28;20028;-67
2020/12/13 03:20:17;;;;;;;73.00;24.98;;;2.10;94.00;;;;;;5052996;28;20021;-67
2020/12/13 03:22:43;;;;;;;68.05;24.23;;;2.10;94.10;;;;;;5052554;28;20017;-67
2020/12/13 03:25:08;;;;;;;82.40;28.48;;;2.10;94.10;;;;;;5051519;28;20116;-67
2020/12/13 03:27:34;;;;;;;67.68;26.25;;;2.10;94.10;;;;;;5052490;28;20029;-67
2020/12/13 03:30:00;;;;;;;67.80;25.08;;;2.10;94.10;;;;;;5052769;28;20109;-67
2020/12/13 03:32:26;;;;;;;71.82;25.58;;;2.10;94.10;;;;;;5050980;28;20029;-68
2020/12/13 03:34:53;;;;;;;65.43;23.98;;;2.10;94.10;;;;;;5052336;28;20525;-68
2020/12/13 03:37:19;;;;;;;68.10;24.55;;;2.10;94.10;;;;;;5052719;28;20023;-68
2020/12/13 03:39:45;;;;;;;56.55;21.98;;;2.10;94.00;;;;;;5052194;28;20106;-68
2020/12/13 03:42:11;;;;;;;67.40;26.65;;;2.10;94.00;;;;;;5052646;28;20415;-68
2020/12/13 03:44:36;;;;;;;56.53;21.40;;;2.10;94.00;;;;;;5053461;28;20495;-70
2020/12/13 03:47:02;;;;;;;59.38;23.73;;;2.10;94.10;;;;;;5055056;28;20025;-68
2020/12/13 03:49:28;;;;;;;61.38;23.35;;;2.10;94.10;;;;;;5055363;28;20471;-68
2020/12/13 03:51:54;;;;;;;60.45;23.85;;;2.10;94.10;;;;;;5056034;28;20557;-67
2020/12/13 03:54:19;;;;;;;56.35;19.85;;;2.10;94.10;;;;;;5055206;28;20036;-67
2020/12/13 03:56:45;;;;;;;61.80;23.70;;;2.10;94.10;;;;;;5056190;28;20459;-67
2020/12/13 03:59:11;;;;;;;53.42;20.83;;;2.10;94.00;;;;;;5056245;28;20075;-67
2020/12/13 04:01:37;;;;;;;55.78;21.23;;;2.10;94.00;;;;;;5055686;28;20032;-67
2020/12/13 04:04:02;;;;;;;63.28;23.02;;;2.10;94.00;;;;;;5056096;28;20052;-67
2020/12/13 04:06:28;;;;;;;63.38;24.27;;;2.10;94.10;;;;;;5056127;28;20070;-66
2020/12/13 04:08:54;;;;;;;53.67;21.42;;;2.10;94.10;;;;;;5055476;28;20352;-66
2020/12/13 04:11:19;;;;;;;63.13;23.27;;;2.10;94.20;;;;;;5056176;28;20438;-67
2020/12/13 04:13:45;;;;;;;55.30;20.60;;;2.10;94.10;;;;;;5055627;28;20487;-67
2020/12/13 04:16:12;;;;;;;52.80;21.30;;;2.10;94.10;;;;;;5055659;28;20021;-67
2020/12/13 04:18:38;;;;;;;63.92;23.88;;;2.10;94.10;;;;;;5055450;28;20021;-67
2020/12/13 04:21:04;;;;;;;52.25;20.13;;;2.10;94.10;;;;;;5055602;28;20053;-66
2020/12/13 04:23:31;;;;;;;72.90;23.30;;;2.10;94.10;;;;;;5055671;28;20071;-67
2020/12/13 04:25:57;;;;;;;52.60;21.23;;;2.10;94.10;;;;;;5055376;28;20025;-67
2020/12/13 04:28:23;;;;;;;63.65;24.92;;;2.10;94.10;;;;;;5055583;28;20066;-67
2020/12/13 04:30:49;;;;;;;70.13;24.02;;;2.10;94.10;;;;;;5055106;28;20049;-67
2020/12/13 04:33:15;;;;;;;65.10;26.60;;;2.00;94.10;;;;;;5055355;28;20487;-67
2020/12/13 04:35:40;;;;;;;67.95;25.48;;;2.10;94.20;;;;;;5055493;28;20035;-68
2020/12/13 04:38:06;;;;;;;72.93;26.77;;;2.10;94.20;;;;;;5055548;28;20082;-67
2020/12/13 04:40:34;;;;;;;73.72;27.42;;;2.10;94.20;;;;;;5055297;28;20021;-67
2020/12/13 04:43:01;;;;;;;75.75;28.60;;;2.10;94.30;;;;;;5054889;28;20112;-68
2020/12/13 04:45:27;;;;;;;72.95;25.23;;;2.20;94.30;;;;;;5054430;28;20102;-68
2020/12/13 04:48:03;;;;;;;85.85;29.63;;;2.10;94.30;;;;;;5054963;28;20029;-68
2020/12/13 04:50:32;;;;;;;80.75;29.42;;;2.10;94.20;;;;;;5055371;28;20036;-67
2020/12/13 04:52:58;;;;;;;82.97;29.70;;;2.20;94.20;;;;;;5054934;28;20025;-68
2020/12/13 04:55:25;;;;;;;89.22;32.25;;;2.20;94.20;;;;;;5054321;28;20496;-70
2020/12/13 04:57:51;;;;;;;99.57;31.77;;;2.20;94.30;;;;;;5054846;28;20092;-67
2020/12/13 05:00:21;;;;;;;79.88;28.73;;;2.10;94.20;;;;;;5054927;28;20025;-66
2020/12/13 05:02:47;;;;;;;76.82;28.42;;;2.10;94.20;;;;;;5054985;28;20133;-67
2020/12/13 05:05:14;;;;;;;87.40;28.92;;;2.10;94.20;;;;;;5055046;28;20447;-67
2020/12/13 05:07:40;;;;;;;84.93;31.75;;;2.10;94.20;;;;;;5054788;28;20025;-67
2020/12/13 05:10:05;;;;;;;94.60;33.45;;;2.10;94.30;;;;;;5054411;28;20520;-68
2020/12/13 05:12:31;;;;;;;75.88;26.80;;;2.10;94.20;;;;;;5055170;28;20025;-67
2020/12/13 05:15:00;;;;;;;86.53;30.75;;;2.20;94.20;;;;;;5053200;28;20033;-67
2020/12/13 05:17:26;;;;;;;94.72;31.58;;;2.10;94.20;;;;;;5054755;28;20025;-66
2020/12/13 05:19:52;;;;;;;87.38;29.95;;;2.10;94.20;;;;;;5054806;28;20040;-68
2020/12/13 05:22:21;;;;;;;82.80;30.15;;;2.10;94.20;;;;;;5054507;28;20032;-67
2020/12/13 05:24:48;;;;;;;83.53;29.60;;;2.10;94.20;;;;;;5054075;28;20036;-69
2020/12/13 05:27:13;;;;;;;73.78;27.23;;;2.10;94.20;;;;;;5053123;28;20029;-67
2020/12/13 05:29:44;;;;;;;83.80;33.08;;;2.10;94.20;;;;;;5054496;28;20078;-67
2020/12/13 05:32:16;;;;;;;87.30;31.83;;;2.10;94.30;;;;;;5054661;28;20036;-67
2020/12/13 05:34:44;;;;;;;90.80;29.95;;;2.10;94.30;;;;;;5054091;28;20471;-67
2020/12/13 05:37:14;;;;;;;84.55;29.67;;;2.20;94.30;;;;;;5054231;28;20031;-67
2020/12/13 05:39:52;;;;;;;93.72;32.65;;;2.20;94.20;;;;;;5052871;28;20116;-66
2020/12/13 05:42:31;;;;;;;91.72;32.35;;;2.20;94.30;;;;;;5054359;28;20344;-67
2020/12/13 05:53:37;;;;;;;103.03;37.25;;;2.10;94.10;;;;;;5051506;28;20056;-68
2020/12/13 05:56:04;;;;;;;96.95;33.33;;;2.10;94.10;;;;;;5051762;28;20030;-68
2020/12/13 05:58:30;;;;;;;91.57;32.80;;;2.10;94.10;;;;;;5047002;28;20520;-68
2020/12/13 06:00:57;;;;;;;94.68;32.65;;;2.10;94.20;;;;;;5054002;28;20025;-68
2020/12/13 06:03:39;;;;;;;92.13;32.45;;;2.10;94.20;;;;;;5053532;28;20140;-68
2020/12/13 06:06:10;;;;;;;103.47;34.55;;;2.10;94.30;;;;;;5052347;28;20472;-66
2020/12/13 06:08:48;;;;;;;90.50;31.27;;;2.10;94.30;;;;;;5052831;28;20104;-69
2020/12/13 06:11:19;;;;;;;91.40;31.23;;;2.10;94.30;;;;;;5053958;28;20027;-68
2020/12/13 06:13:45;;;;;;;95.15;33.70;;;2.10;94.30;;;;;;5052194;28;20078;-67
2020/12/13 06:16:14;;;;;;;100.60;33.38;;;2.10;94.20;;;;;;5053597;28;20095;-67
2020/12/13 06:18:40;;;;;;;96.03;35.20;;;2.10;94.30;;;;;;5053200;28;20029;-67
2020/12/13 06:21:10;;;;;;;98.55;32.25;;;2.10;94.30;;;;;;5053476;28;20021;-67
2020/12/13 06:23:40;;;;;;;98.22;33.78;;;2.10;94.40;;;;;;5053466;28;20040;-68
2020/12/13 06:26:05;;;;;;;86.25;30.45;;;2.10;94.40;;;;;;5053593;28;20021;-68
2020/12/13 06:28:31;;;;;;;78.85;29.35;;;2.10;94.30;;;;;;5052470;28;20071;-67
2020/12/13 06:31:02;;;;;;;92.72;30.83;;;2.10;94.30;;;;;;5052956;28;20021;-68
2020/12/13 06:33:27;;;;;;;93.60;33.97;;;2.10;94.40;;;;;;5053332;28;20063;-68
2020/12/13 06:35:53;;;;;;;103.03;37.40;;;2.10;94.30;;;;;;5051667;28;20049;-67
2020/12/13 06:38:19;;;;;;;131.25;49.85;;;2.10;94.30;;;;;;5052148;28;20047;-67
2020/12/13 06:40:50;;;;;;;100.93;36.08;;;2.10;94.20;;;;;;5052804;28;20063;-66
2020/12/13 06:43:17;;;;;;;101.00;36.45;;;2.10;94.20;;;;;;5052908;28;20031;-67
2020/12/13 06:45:43;;;;;;;106.72;42.80;;;2.10;94.20;;;;;;5053055;28;20482;-68
2020/12/13 06:48:09;;;;;;;84.82;31.75;;;2.10;94.20;;;;;;5052999;28;20025;-67
2020/12/13 06:50:36;;;;;;;84.18;30.23;;;2.10;94.20;;;;;;5053088;28;20052;-67
2020/12/13 06:53:02;;;;;;;97.15;34.58;;;2.10;94.30;;;;;;5052714;28;20029;-67
2020/12/13 06:55:33;;;;;;;166.32;49.15;;;2.10;94.30;;;;;;5053021;28;20530;-68
2020/12/13 06:58:00;;;;;;;126.80;38.60;;;2.10;94.40;;;;;;5051768;28;20166;-67
2020/12/13 07:00:27;;;;;;;90.40;32.78;;;2.10;94.40;;;;;;5052884;28;20040;-68
2020/12/13 07:02:58;;;;;;;98.15;31.92;;;2.10;94.40;;;;;;5051231;28;20072;-67
2020/12/13 07:05:52;;;;;;;87.78;32.28;;;2.10;94.30;;;;;;5051571;28;20051;-67
2020/12/13 07:08:22;;;;;;;74.65;28.25;;;2.10;94.40;;;;;;5052685;28;20052;-67
2020/12/13 07:10:51;;;;;;;72.18;27.08;;;2.10;94.30;;;;;;5051288;28;20028;-67
2020/12/13 07:13:21;;;;;;;82.82;30.70;;;2.10;94.40;;;;;;5051265;28;20025;-68
2020/12/13 07:15:52;;;;;;;79.50;30.80;;;2.20;94.40;;;;;;5052852;28;20024;-68
2020/12/13 07:18:21;;;;;;;82.82;31.27;;;2.20;94.40;;;;;;5053693;28;20451;-68
2020/12/13 07:20:47;;;;;;;97.10;38.50;;;2.20;94.30;;;;;;5056519;28;20075;-68
2020/12/13 07:23:13;;;;;;;146.85;50.28;;;2.20;94.30;;;;;;5056569;28;20387;-68
2020/12/13 07:25:38;;;;;;;110.68;38.78;;;2.10;94.20;;;;;;5056487;28;20021;-67
2020/12/13 07:28:06;;;;;;;132.30;46.40;;;2.10;94.20;;;;;;5057190;28;20083;-67
2020/12/13 07:30:36;;;;;;;102.05;36.25;;;2.10;94.20;;;;;;5056772;28;20017;-67
2020/12/13 07:33:02;;;;;;;87.28;34.00;;;2.10;94.30;;;;;;5056723;28;20071;-67
2020/12/13 07:35:28;;;;;;;96.50;38.22;;;2.20;94.30;;;;;;5055333;28;20375;-69
2020/12/13 07:37:54;;;;;;;116.53;43.22;;;2.10;94.20;;;;;;5056440;28;20029;-68
2020/12/13 07:40:20;;;;;;;85.95;32.08;;;2.10;94.30;;;;;;5054931;28;20370;-68
2020/12/13 07:42:54;;;;;;;73.25;28.60;;;2.10;94.30;;;;;;5054898;28;20577;-69
2020/12/13 07:45:20;;;;;;;74.20;28.58;;;2.10;94.20;;;;;;5055464;28;20033;-68
2020/12/13 07:48:00;;;;;;;70.60;25.52;;;2.20;94.30;;;;;;5055209;28;20451;-68
2020/12/13 07:50:41;;;;;;;66.90;26.17;;;2.10;94.20;;;;;;5055013;28;20120;-68
2020/12/13 07:53:07;;;;;;;69.68;27.38;;;2.10;94.10;;;;;;5055983;28;20017;-68
2020/12/13 07:55:33;;;;;;;68.68;25.35;;;2.10;94.20;;;;;;5055212;28;20074;-68
2020/12/13 07:57:59;;;;;;;78.55;30.00;;;2.10;94.20;;;;;;5056225;28;20461;-68
2020/12/13 08:00:24;;;;;;;105.50;37.50;;;2.10;94.20;;;;;;5055834;28;20483;-68
2020/12/13 08:02:56;;;;;;;73.70;29.63;;;2.10;94.30;;;;;;5054326;28;20462;-68
2020/12/13 08:05:25;;;;;;;80.50;29.42;;;2.10;94.20;;;;;;5055699;28;20051;-67
2020/12/13 08:08:01;;;;;;;63.38;26.27;;;2.10;94.20;;;;;;5055004;28;20032;-68
2020/12/13 08:10:30;;;;;;;64.78;24.70;;;2.10;94.30;;;;;;5054484;28;20025;-67
2020/12/13 08:12:56;;;;;;;67.20;26.40;;;2.10;94.30;;;;;;5055617;28;20036;-67
2020/12/13 08:15:22;;;;;;;68.05;25.08;;;2.10;94.30;;;;;;5054218;28;20406;-68
2020/12/13 08:18:07;;;;;;;63.45;24.48;;;2.10;94.30;;;;;;5055785;28;20027;-68
2020/12/13 08:20:37;;;;;;;63.40;24.98;;;2.10;94.30;;;;;;5055795;28;20039;-67
2020/12/13 08:23:05;;;;;;;68.88;28.98;;;2.10;94.20;;;;;;5055756;28;20108;-67
2020/12/13 08:25:35;;;;;;;62.53;26.08;;;2.10;94.30;;;;;;5055372;28;20029;-67
2020/12/13 08:28:07;;;;;;;74.15;29.20;;;2.20;94.30;;;;;;5055804;28;20360;-68
2020/12/13 08:30:34;;;;;;;69.28;27.25;;;2.20;94.40;;;;;;5039239;28;20025;-67
2020/12/13 08:33:00;;;;;;;77.70;30.85;;;2.20;94.30;;;;;;5054157;28;20442;-68
2020/12/13 08:35:28;;;;;;;109.38;41.47;;;2.20;94.20;;;;;;5055240;28;20116;-68
2020/12/13 08:37:53;;;;;;;98.13;40.22;;;2.20;94.30;;;;;;5055370;28;20477;-68
2020/12/13 08:40:34;;;;;;;74.70;32.53;;;2.20;94.30;;;;;;5055294;28;20101;-68
2020/12/13 08:43:00;;;;;;;73.88;28.92;;;2.20;94.20;;;;;;5055089;28;20132;-68
2020/12/13 08:45:25;;;;;;;70.60;26.75;;;2.20;94.20;;;;;;5055471;28;20522;-68
2020/12/13 08:47:51;;;;;;;59.70;23.67;;;2.30;94.20;;;;;;5053795;28;20040;-69
2020/12/13 08:50:20;;;;;;;67.13;28.08;;;2.20;94.10;;;;;;5055100;28;20068;-68
2020/12/13 08:52:45;;;;;;;56.30;24.27;;;2.20;94.00;;;;;;5054865;28;20387;-68
2020/12/13 08:55:11;;;;;;;67.07;27.05;;;2.20;94.10;;;;;;5053648;28;20025;-68
2020/12/13 08:57:45;;;;;;;59.03;24.23;;;2.20;94.00;;;;;;5054944;28;20025;-68
2020/12/13 09:00:13;;;;;;;65.88;24.02;;;2.20;94.10;;;;;;5053798;28;20020;-67
2020/12/13 09:02:39;;;;;;;51.25;21.92;;;2.20;94.10;;;;;;5053409;28;20523;-69
2020/12/13 09:05:07;;;;;;;60.70;24.83;;;2.20;94.10;;;;;;5054679;28;20033;-67
2020/12/13 09:07:34;;;;;;;57.88;24.55;;;2.20;94.20;;;;;;5054812;28;20025;-67
2020/12/13 09:10:08;;;;;;;70.82;27.70;;;2.20;94.20;;;;;;5053288;28;20021;-67
2020/12/13 09:12:36;;;;;;;60.00;26.45;;;2.20;94.20;;;;;;5053669;28;20497;-67
2020/12/13 09:15:16;;;;;;;66.63;28.35;;;2.20;94.10;;;;;;5053192;28;20040;-72
2020/12/13 09:17:55;;;;;;;60.97;26.50;;;2.30;94.10;;;;;;5054810;28;20029;-66
2020/12/13 09:20:33;;;;;;;73.50;29.88;;;2.30;94.20;;;;;;5053102;28;20120;-67
2020/12/13 09:23:13;;;;;;;45.00;20.25;;;2.30;94.10;;;;;;5054537;28;20479;-68
2020/12/13 09:25:47;;;;;;;47.20;19.42;;;2.20;93.90;;;;;;5054544;28;20017;-67
2020/12/13 09:28:14;;;;;;;45.58;20.27;;;2.20;93.80;;;;;;5054546;28;20040;-68
2020/12/13 09:30:42;;;;;;;54.10;24.60;;;2.20;93.80;;;;;;5053861;28;20104;-68
2020/12/13 09:33:08;;;;;;;41.50;18.00;;;2.20;93.90;;;;;;5054478;28;20018;-68
2020/12/13 09:35:34;;;;;;;41.60;19.67;;;2.20;94.20;;;;;;5054191;28;20029;-68
2020/12/13 09:38:01;;;;;;;44.53;19.65;;;2.20;93.90;;;;;;5054117;28;20021;-68
2020/12/13 09:40:28;;;;;;;46.60;22.38;;;2.20;94.00;;;;;;5053906;28;20029;-69
2020/12/13 09:42:55;;;;;;;46.45;19.15;;;2.20;94.00;;;;;;5053847;28;20032;-69
2020/12/13 09:45:21;;;;;;;58.25;28.48;;;2.20;94.00;;;;;;5054240;28;20032;-69
2020/12/13 09:47:47;;;;;;;46.75;21.38;;;2.20;93.90;;;;;;5053086;28;20032;-68
2020/12/13 09:50:13;;;;;;;38.78;19.77;;;2.20;93.90;;;;;;5053986;28;20098;-68
2020/12/13 09:52:39;;;;;;;47.63;21.98;;;2.20;93.90;;;;;;5052701;28;20035;-67
2020/12/13 09:55:05;;;;;;;38.45;19.60;;;2.20;93.90;;;;;;5053678;28;20386;-69
2020/12/13 09:57:30;;;;;;;50.17;21.75;;;2.20;93.90;;;;;;5054046;28;20028;-69
2020/12/13 09:59:56;;;;;;;49.85;21.98;;;2.20;94.00;;;;;;5053351;28;20029;-68
2020/12/13 10:02:22;;;;;;;44.70;19.50;;;2.20;93.90;;;;;;5052060;28;20028;-68
2020/12/13 10:04:48;;;;;;;49.55;21.38;;;2.20;93.90;;;;;;5052562;28;20029;-69
2020/12/13 10:09:51;;;;;;;49.03;21.05;;;2.20;94.00;;;;;;5053608;28;20048;-69
2020/12/13 10:12:17;;;;;;;51.05;22.23;;;2.20;93.90;;;;;;5053415;28;20025;-68
2020/12/13 10:14:43;;;;;;;58.40;25.42;;;2.20;93.80;;;;;;5053270;28;20029;-68
2020/12/13 10:17:08;;;;;;;60.13;24.70;;;2.10;93.70;;;;;;5053496;28;20021;-67
2020/12/13 10:19:34;;;;;;;48.08;22.75;;;2.10;93.80;;;;;;5052352;28;20072;-67
2020/12/13 10:22:00;;;;;;;55.95;25.67;;;2.10;93.80;;;;;;5053218;28;20028;-68
2020/12/13 10:24:25;;;;;;;47.95;22.10;;;2.10;93.90;;;;;;5053506;28;20127;-69
2020/12/13 10:26:51;;;;;;;48.08;22.73;;;2.10;93.90;;;;;;5053125;28;20025;-68
2020/12/13 10:29:17;;;;;;;45.28;20.48;;;2.20;93.90;;;;;;5053564;28;20054;-69
2020/12/13 10:31:46;;;;;;;56.70;23.67;;;2.20;93.90;;;;;;5053741;28;20094;-69
2020/12/13 10:34:12;;;;;;;47.63;20.92;;;2.20;93.90;;;;;;5053350;28;20166;-69
2020/12/13 10:36:39;;;;;;;45.10;21.05;;;2.10;93.80;;;;;;5053380;28;20368;-68
2020/12/13 10:39:07;;;;;;;47.13;21.95;;;2.10;93.80;;;;;;5052839;28;20056;-70
2020/12/13 10:41:33;;;;;;;69.05;29.10;;;2.20;93.80;;;;;;5051896;28;20028;-68
2020/12/13 10:44:00;;;;;;;66.47;29.95;;;2.20;93.90;;;;;;5053464;28;20051;-68
2020/12/13 10:46:26;;;;;;;61.97;28.98;;;2.20;93.90;;;;;;5051750;28;20036;-68
2020/12/13 10:48:52;;;;;;;59.40;27.27;;;2.20;93.90;;;;;;5053073;28;20352;-68
2020/12/13 10:51:18;;;;;;;52.08;24.13;;;2.10;93.80;;;;;;5051572;28;20078;-69
2020/12/13 10:53:45;;;;;;;54.08;23.02;;;2.10;93.70;;;;;;5051104;28;20044;-69
2020/12/13 10:56:11;;;;;;;44.88;20.75;;;2.10;93.70;;;;;;5051571;28;20124;-67
2020/12/13 10:58:42;;;;;;;49.20;22.70;;;2.10;93.70;;;;;;5052710;28;20200;-69
2020/12/13 11:01:11;;;;;;;47.67;20.25;;;2.10;93.60;;;;;;5052913;28;20554;-69
2020/12/13 11:03:37;;;;;;;91.10;34.63;;;2.00;93.70;;;;;;5051187;28;20041;-69
2020/12/13 11:06:04;;;;;;;64.53;26.13;;;2.00;93.70;;;;;;5052936;28;20029;-68
2020/12/13 11:08:30;;;;;;;54.47;23.90;;;2.10;93.80;;;;;;5051217;28;20089;-68
2020/12/13 11:10:55;;;;;;;70.45;29.75;;;2.00;93.80;;;;;;5051512;28;20025;-69
2020/12/13 11:13:21;;;;;;;58.08;25.70;;;2.00;93.80;;;;;;5052977;28;20112;-70
2020/12/13 11:15:47;;;;;;;51.17;22.90;;;2.00;93.80;;;;;;5053008;28;20096;-69
2020/12/13 11:18:13;;;;;;;56.05;24.55;;;2.00;93.80;;;;;;5051896;28;20035;-69
2020/12/13 11:20:40;;;;;;;60.70;27.40;;;2.00;93.70;;;;;;5052372;28;20462;-69
2020/12/13 11:23:06;;;;;;;58.17;25.20;;;2.00;93.70;;;;;;5051387;28;20029;-68
2020/12/13 11:25:32;;;;;;;57.08;24.02;;;2.00;93.80;;;;;;5052334;28;20455;-68
2020/12/13 11:27:59;;;;;;;45.15;22.10;;;2.00;93.80;;;;;;5052854;28;20021;-68
2020/12/13 11:30:25;;;;;;;51.75;24.58;;;2.00;93.80;;;;;;5051402;28;20414;-69
2020/12/13 11:32:51;;;;;;;47.10;22.15;;;2.00;93.80;;;;;;5051180;28;20024;-68
2020/12/13 11:35:17;;;;;;;56.35;25.70;;;2.00;93.70;;;;;;5052571;28;20040;-67
2020/12/13 11:37:44;;;;;;;61.22;27.27;;;2.00;93.70;;;;;;5052450;28;20021;-68
2020/12/13 11:40:10;;;;;;;50.20;21.90;;;2.00;93.80;;;;;;5051254;28;20029;-68
2020/12/13 11:42:36;;;;;;;61.55;28.85;;;1.90;93.80;;;;;;5051218;28;20025;-69
2020/12/13 11:45:03;;;;;;;54.38;23.20;;;1.90;93.80;;;;;;5052586;28;20025;-68
2020/12/13 11:47:29;;;;;;;54.97;26.67;;;1.90;93.80;;;;;;5052635;28;20571;-69
2020/12/13 11:49:55;;;;;;;53.33;23.27;;;1.90;93.80;;;;;;5051187;28;20119;-69
2020/12/13 11:52:21;;;;;;;60.63;26.27;;;1.90;93.90;;;;;;5052443;28;20032;-68
2020/12/13 11:54:47;;;;;;;59.80;24.73;;;1.90;93.90;;;;;;5052243;28;20075;-69
2020/12/13 11:57:13;;;;;;;61.42;28.05;;;2.00;94.00;;;;;;5051306;28;20044;-69
2020/12/13 11:59:39;;;;;;;89.18;37.58;;;2.00;94.00;;;;;;5052616;28;20021;-69
2020/12/13 12:02:05;;;;;;;76.68;34.00;;;2.00;94.00;;;;;;5052236;28;20017;-70
2020/12/13 12:04:31;;;;;;;56.50;27.55;;;2.00;93.90;;;;;;5040458;28;20053;-69
2020/12/13 12:06:57;;;;;;;57.20;26.42;;;2.00;94.00;;;;;;5053081;28;20497;-69
2020/12/13 12:09:23;;;;;;;58.45;23.98;;;2.00;93.90;;;;;;5056312;28;20116;-68
2020/12/13 12:11:49;;;;;;;46.72;19.50;;;2.00;93.90;;;;;;5054773;28;20112;-69
2020/12/13 12:14:15;;;;;;;58.70;22.90;;;2.00;93.90;;;;;;5054578;28;20025;-68
2020/12/13 12:16:43;;;;;;;51.75;22.98;;;2.00;93.90;;;;;;5054614;28;20028;-69
2020/12/13 12:19:10;;;;;;;55.67;24.17;;;2.00;93.80;;;;;;5055542;28;20463;-69
2020/12/13 12:21:37;;;;;;;52.28;23.77;;;2.00;93.90;;;;;;5055377;28;20021;-69
2020/12/13 12:24:03;;;;;;;60.47;24.75;;;2.00;93.90;;;;;;5055676;28;20036;-69
2020/12/13 12:26:33;;;;;;;51.85;21.75;;;2.00;93.80;;;;;;5055780;28;20025;-67
2020/12/13 12:28:59;;;;;;;69.95;29.13;;;2.00;93.80;;;;;;5053907;28;20119;-68
2020/12/13 12:31:25;;;;;;;74.13;33.38;;;2.00;93.80;;;;;;5055464;28;20029;-67
2020/12/13 12:33:51;;;;;;;69.70;29.15;;;1.90;93.80;;;;;;5055187;28;20037;-69
2020/12/13 12:36:19;;;;;;;76.25;34.40;;;1.90;93.80;;;;;;5047115;28;20026;-68
2020/12/13 12:38:46;;;;;;;81.03;35.13;;;1.90;93.90;;;;;;5048570;28;20020;-67
2020/12/13 12:41:16;;;;;;;71.68;31.50;;;1.90;93.90;;;;;;5055251;28;20033;-68
2020/12/13 12:43:42;;;;;;;54.13;23.73;;;1.90;94.00;;;;;;5055436;28;20036;-67
2020/12/13 12:46:08;;;;;;;73.95;31.77;;;2.00;94.00;;;;;;5053923;28;20467;-70
2020/12/13 12:48:34;;;;;;;123.93;48.22;;;1.90;94.00;;;;;;5054173;28;20025;-68
2020/12/13 12:51:02;;;;;;;81.70;35.17;;;2.00;94.10;;;;;;5055439;28;20055;-69